Latest Weather Observations for kunanyi / Mount Wellington

IDT60801

Issued at 5:41 pm EST Wednesday 23 September 2020 (issued every 10 minutes, with the page automatically refreshed every 10 minutes)

About weather observations | Map of weather stations | Latest weather observations for TAS | Other Formats
Station Details ID: 094087 Name: KUNANYI (MOUNT WELLINGTON PINNACLE) Lat: -42.90 Lon: 147.24 Height: 1260.47 m
Data from the previous 72 hours. | See also: Recent months at kunanyi / Mount Wellington
Date/Time
EST
Temp
°C
App
Temp
°C
Dew
Point
°C
Rel
Hum
%
Delta-T
°C
Wind Press
QNH
hPa
Press
MSL
hPa
Rain since
9am
mm
Dir  Spd
km/h
Gust
km/h
Spd
kts
Gust
kts
23/05:30pm 0.8 -12.3 0.8 100 0.0 SW 59 70 32 38 - - 6.6
23/05:00pm 0.7 -12.0 0.7 100 0.0 SW 57 69 31 37 - - 6.6
23/04:30pm 1.3 -7.9 1.3 100 0.0 SW 39 56 21 30 - - 6.6
23/04:00pm 1.4 -7.4 1.4 100 0.0 SW 37 50 20 27 - - 6.2
23/03:30pm 1.8 -6.6 1.8 100 0.0 SSW 35 56 19 30 - - 5.8
23/03:13pm 2.3 -6.4 2.3 100 0.0 SW 37 56 20 30 - - 5.8
23/03:00pm 2.2 -8.2 2.2 100 0.0 SW 46 61 25 33 - - 5.6
23/02:30pm 1.1 -11.0 1.1 100 0.0 SW 54 67 29 36 - - 5.0
23/02:00pm 1.8 -8.3 1.8 100 0.0 SSW 44 57 24 31 - - 4.0
23/01:34pm 2.5 -9.0 2.5 100 0.0 SW 52 74 28 40 - - 2.6
23/01:30pm 2.3 -9.2 2.3 100 0.0 SW 52 67 28 36 - - 2.6
23/01:06pm 2.1 -9.8 2.1 100 0.0 SW 54 76 29 41 - - 2.6
23/01:00pm 2.3 -10.0 2.3 100 0.0 SW 56 70 30 38 - - 2.6
23/12:33pm 1.8 -9.8 1.8 100 0.0 SW 52 72 28 39 - - 1.4
23/12:30pm 2.6 -8.8 2.6 100 0.0 SW 52 69 28 37 - - 1.2
23/12:02pm 2.7 -8.4 2.7 100 0.0 SW 50 69 27 37 - - 1.2
23/12:00pm 3.0 -8.4 3.0 100 0.0 SW 52 69 28 37 - - 1.2
23/11:44am 2.4 -9.8 2.4 100 0.0 SW 56 74 30 40 - - 1.0
23/11:30am 2.1 -10.8 2.1 100 0.0 SW 59 74 32 40 - - 1.0
23/11:00am 2.4 -9.8 2.4 100 0.0 SW 56 80 30 43 - - 0.4
23/10:44am 2.1 -11.1 2.1 100 0.0 SW 61 80 33 43 - - 0.4
23/10:30am 2.3 -10.5 2.3 100 0.0 SW 59 76 32 41 - - 0.4
23/10:00am 2.2 -11.8 2.2 100 0.0 WSW 65 76 35 41 - - 0.4
23/09:30am 1.8 -10.5 1.8 100 0.0 WSW 56 80 30 43 - - 0.2
23/09:21am 1.7 -11.6 1.7 100 0.0 WSW 61 80 33 43 - - 0.0
23/09:00am 1.7 -12.0 1.7 100 0.0 WSW 63 78 34 42 - - 3.0
23/08:30am 1.4 -12.7 1.4 100 0.0 WSW 65 78 35 42 - - 3.0
23/08:00am 1.3 -13.2 1.3 100 0.0 WSW 67 80 36 43 - - 3.0
23/07:30am 1.1 -11.4 1.1 100 0.0 WSW 56 78 30 42 - - 3.0
23/07:06am 1.0 -10.3 1.0 100 0.0 WSW 50 69 27 37 - - 2.8
23/07:00am 1.0 -10.7 1.0 100 0.0 WSW 52 69 28 37 - - 2.8
23/06:33am 0.6 -13.3 0.6 100 0.0 WSW 63 83 34 45 - - 2.8
23/06:30am 0.5 -13.4 0.5 100 0.0 WSW 63 78 34 42 - - 2.8
23/06:00am 0.3 -14.9 0.3 100 0.0 WSW 70 83 38 45 - - 2.8
23/05:33am 0.0 -15.1 0.0 100 0.0 WSW 69 91 37 49 - - 2.6
23/05:30am 0.0 -15.1 0.0 100 0.0 WSW 69 83 37 45 - - 2.6
23/05:14am 0.0 -15.1 0.0 100 0.0 WSW 69 87 37 47 - - 2.6
23/05:00am 0.0 -14.0 0.0 100 0.0 WSW 63 80 34 43 - - 2.6
23/04:31am 0.5 -12.2 0.5 100 0.0 WSW 57 87 31 47 - - 2.4
23/04:30am 0.5 -12.2 0.5 100 0.0 WSW 57 87 31 47 - - 2.4
23/04:29am 0.5 -12.2 0.5 100 0.0 WSW 57 87 31 47 - - 2.4
23/04:00am 0.8 -14.2 0.8 100 0.0 WSW 69 91 37 49 - - 2.4
23/03:30am 0.7 -15.2 0.7 100 0.0 W 74 96 40 52 - - 2.4
23/03:00am 0.6 -16.5 0.6 100 0.0 W 80 106 43 57 - - 2.4
23/02:30am 0.5 -15.1 0.5 100 0.0 W 72 95 39 51 - - 2.2
23/02:00am 0.3 -13.6 0.3 100 0.0 W 63 82 34 44 - - 2.2
23/01:30am 0.5 -11.7 0.5 100 0.0 WNW 54 74 29 40 - - 2.2
23/01:00am 0.5 -11.3 0.5 100 0.0 WNW 52 72 28 39 - - 2.2
23/12:30am 0.4 -11.0 0.4 100 0.0 WNW 50 70 27 38 - - 2.2
23/12:01am 0.3 -10.8 0.3 100 0.0 WNW 48 72 26 39 - - 2.2
23/12:00am 0.3 -10.4 0.3 100 0.0 WNW 46 61 25 33 - - 2.2
 
Date/Time
EST
Temp
°C
App
Temp
°C
Dew
Point
°C
Rel
Hum
%
Delta-T
°C
Wind Press
QNH
hPa
Press
MSL
hPa
Rain since
9am
mm
Dir  Spd
km/h
Gust
km/h
Spd
kts
Gust
kts
22/11:30pm 0.5 -11.0 0.1 97 0.2 W 50 74 27 40 - - 2.2
22/11:20pm 0.7 -10.3 0.4 98 0.1 W 48 67 26 36 - - 2.2
22/11:00pm 0.9 -9.3 0.8 99 0.0 W 44 59 24 32 - - 2.0
22/10:30pm 1.3 -8.7 1.3 100 0.0 W 43 54 23 29 - - 2.0
22/10:17pm 1.3 -9.6 1.3 100 0.0 W 48 67 26 36 - - 2.0
22/10:00pm 1.2 -9.7 1.2 100 0.0 W 48 65 26 35 - - 2.0
22/09:30pm 1.3 -10.4 1.3 100 0.0 W 52 61 28 33 - - 2.0
22/09:00pm 1.0 -10.7 1.0 100 0.0 WNW 52 63 28 34 - - 2.0
22/08:30pm 1.3 -8.8 1.3 100 0.0 WNW 44 57 24 31 - - 2.0
22/08:00pm 1.4 -9.1 1.4 100 0.0 WNW 46 59 25 32 - - 2.0
22/07:30pm 1.6 -7.9 1.6 100 0.0 WNW 41 56 22 30 - - 2.0
22/07:10pm 2.0 -8.0 1.9 99 0.0 WNW 44 63 24 34 - - 2.0
22/07:00pm 2.0 -7.8 2.0 100 0.0 WNW 43 59 23 32 - - 2.0
22/06:54pm 2.2 -6.8 2.2 100 0.0 WNW 39 59 21 32 - - 2.0
22/06:30pm 2.4 -5.5 2.4 100 0.0 WNW 33 44 18 24 - - 2.0
22/06:00pm 2.9 -5.0 2.3 96 0.3 WNW 33 48 18 26 - - 1.0
22/05:30pm 3.2 -4.8 1.9 91 0.6 WNW 33 48 18 26 - - 1.0
22/05:00pm 3.7 -4.3 1.6 86 0.9 WNW 33 44 18 24 - - 1.0
22/04:30pm 4.2 -2.9 1.6 83 1.1 WNW 28 43 15 23 - - 1.0
22/04:00pm 5.3 -2.5 1.8 78 1.5 WNW 32 44 17 24 - - 1.0
22/03:30pm 5.0 -1.9 2.7 85 1.0 WNW 28 39 15 21 - - 1.0
22/03:00pm 5.1 -2.4 3.4 89 0.8 WNW 32 41 17 22 - - 1.0
22/02:33pm 5.0 -4.0 2.5 84 1.1 WNW 39 57 21 31 - - 1.0
22/02:30pm 5.3 -4.5 2.5 82 1.2 WNW 43 57 23 31 - - 1.0
22/02:00pm 4.8 -3.2 3.8 93 0.5 W 35 48 19 26 - - 1.0
22/01:30pm 5.2 -3.3 5.2 100 0.0 WNW 39 48 21 26 - - 1.0
22/01:00pm 4.0 -4.0 3.7 98 0.1 WNW 35 46 19 25 - - 0.4
22/12:30pm 4.4 -4.9 3.1 91 0.6 WNW 41 52 22 28 - - 0.2
22/12:09pm 4.7 -4.6 3.0 89 0.8 NW 41 61 22 33 - - 0.0
22/12:00pm 4.8 -4.9 3.1 89 0.8 NW 43 59 23 32 - - 0.0
22/11:30am 4.9 -5.1 2.3 83 1.1 NW 44 65 24 35 - - 0.0
22/11:00am 4.5 -4.9 2.5 87 0.9 NW 41 59 22 32 - - 0.0
22/10:49am 4.7 -2.8 3.4 91 0.6 NW 32 54 17 29 - - 0.0
22/10:30am 4.1 -4.9 2.5 89 0.7 NW 39 54 21 29 - - 0.0
22/10:08am 4.0 -4.9 2.8 92 0.5 NW 39 57 21 31 - - 0.0
22/10:00am 3.9 -5.9 2.4 90 0.7 NW 43 57 23 31 - - 0.0
22/09:30am 3.5 -6.8 2.8 95 0.3 NW 46 72 25 39 - - 0.0
22/09:00am 2.5 -7.3 2.5 100 0.0 NW 43 61 23 33 - - 0.4
22/08:34am 2.2 -9.7 2.2 100 0.0 NW 54 72 29 39 - - 0.4
22/08:30am 2.3 -10.0 2.3 100 0.0 NW 56 72 30 39 - - 0.4
22/08:03am 1.7 -9.9 1.7 100 0.0 NW 52 70 28 38 - - 0.4
22/08:00am 1.7 -9.9 1.7 100 0.0 NW 52 69 28 37 - - 0.4
22/07:44am 1.5 -9.4 1.5 100 0.0 NW 48 67 26 36 - - 0.4
22/07:30am 1.6 -11.0 1.6 100 0.0 NW 57 74 31 40 - - 0.4
22/07:09am 1.6 -10.8 1.6 100 0.0 NW 56 76 30 41 - - 0.4
22/07:00am 1.6 -10.4 1.6 100 0.0 NW 54 69 29 37 - - 0.4
22/06:30am 1.4 -9.9 1.4 100 0.0 NW 50 65 27 35 - - 0.4
22/06:00am 1.3 -10.0 1.3 100 0.0 NW 50 65 27 35 - - 0.4
22/05:43am 1.4 -10.6 1.4 100 0.0 NW 54 76 29 41 - - 0.4
22/05:30am 1.5 -10.5 1.4 99 0.0 NW 54 70 29 38 - - 0.4
22/05:02am 1.7 -11.3 1.3 97 0.2 NW 59 80 32 43 - - 0.4
22/05:00am 1.7 -11.3 1.1 96 0.2 NW 59 76 32 41 - - 0.4
22/04:39am 1.9 -11.2 0.9 93 0.4 NW 59 80 32 43 - - 0.4
22/04:30am 2.0 -10.7 1.0 93 0.4 NW 57 72 31 39 - - 0.4
22/04:00am 2.2 -9.1 1.0 92 0.5 NNW 50 65 27 35 - - 0.4
22/03:46am 2.1 -8.1 1.1 93 0.4 NNW 44 65 24 35 - - 0.4
22/03:30am 2.2 -9.1 1.0 92 0.5 NNW 50 65 27 35 - - 0.4
22/03:00am 2.1 -9.2 1.2 94 0.4 NNW 50 69 27 37 - - 0.4
22/02:34am 2.1 -8.5 1.1 93 0.4 NNW 46 69 25 37 - - 0.4
22/02:30am 2.0 -8.6 1.0 93 0.4 NNW 46 61 25 33 - - 0.4
22/02:00am 2.0 -8.2 0.8 92 0.5 NNW 44 57 24 31 - - 0.4
22/01:30am 2.1 -6.8 0.6 90 0.6 N 37 54 20 29 - - 0.4
22/01:00am 2.4 -6.5 0.6 88 0.7 NNW 37 57 20 31 - - 0.4
22/12:51am 2.4 -6.9 0.5 87 0.8 NNW 39 57 21 31 - - 0.4
22/12:30am 2.5 -7.8 0.4 86 0.9 NNW 44 61 24 33 - - 0.4
22/12:06am 2.3 -7.0 0.4 87 0.8 NNW 39 59 21 32 - - 0.4
22/12:00am 2.1 -7.2 0.3 88 0.7 NNW 39 54 21 29 - - 0.4
 
Date/Time
EST
Temp
°C
App
Temp
°C
Dew
Point
°C
Rel
Hum
%
Delta-T
°C
Wind Press
QNH
hPa
Press
MSL
hPa
Rain since
9am
mm
Dir  Spd
km/h
Gust
km/h
Spd
kts
Gust
kts
21/11:30pm 1.9 -7.9 0.1 88 0.7 NNW 41 50 22 27 - - 0.4
21/11:18pm 1.9 -7.9 0.1 88 0.7 NW 41 59 22 32 - - 0.4
21/11:00pm 1.9 -8.2 0.3 89 0.6 NW 43 54 23 29 - - 0.4
21/10:30pm 2.0 -9.0 0.4 89 0.6 NW 48 61 26 33 - - 0.4
21/10:00pm 2.1 -8.0 1.4 95 0.3 NW 44 57 24 31 - - 0.4
21/09:30pm 2.3 -8.1 1.9 97 0.2 NW 46 57 25 31 - - 0.4
21/09:00pm 2.5 -9.2 1.0 90 0.6 NW 52 65 28 35 - - 0.4
21/08:30pm 2.4 -7.7 1.4 93 0.4 WNW 44 54 24 29 - - 0.4
21/08:00pm 2.9 -7.3 1.1 88 0.8 NW 44 56 24 30 - - 0.4
21/07:30pm 3.3 -6.8 1.5 88 0.8 NW 44 57 24 31 - - 0.4
21/07:00pm 3.5 -5.6 1.9 89 0.7 NW 39 61 21 33 - - 0.4
21/06:51pm 3.9 -6.0 1.6 85 1.0 NW 43 61 23 33 - - 0.4
21/06:30pm 3.9 -3.5 1.6 85 1.0 NW 30 43 16 23 - - 0.4
21/06:00pm 4.5 -3.2 2.4 86 0.9 NW 32 43 17 23 - - 0.4
21/05:30pm 5.3 -1.0 1.6 77 1.6 WNW 24 30 13 16 - - 0.4
21/05:00pm 7.0 0.9 0.7 64 2.7 WNW 22 28 12 15 - - 0.4
21/04:30pm 7.4 1.1 1.7 67 2.5 NW 24 35 13 19 - - 0.4
21/04:00pm 7.3 0.9 1.2 65 2.7 NW 24 32 13 17 - - 0.4
21/03:30pm 7.5 0.0 1.1 64 2.8 NNW 30 43 16 23 - - 0.4
21/03:00pm 7.5 -0.3 1.4 65 2.7 NW 32 44 17 24 - - 0.4
21/02:30pm 7.9 -0.2 1.1 62 3.0 NW 33 50 18 27 - - 0.4
21/02:00pm 7.3 -1.5 1.6 67 2.5 NW 37 57 20 31 - - 0.4
21/01:50pm 7.1 -1.4 1.2 66 2.6 NW 35 54 19 29 - - 0.4
21/01:30pm 6.7 -1.1 1.6 70 2.2 NW 32 43 17 23 - - 0.4
21/01:12pm 6.4 -1.5 1.3 70 2.2 NW 32 56 17 30 - - 0.4
21/01:00pm 6.5 -0.6 1.6 71 2.1 NW 28 44 15 24 - - 0.4
21/12:35pm 6.7 -1.3 1.4 69 2.3 NW 33 59 18 32 - - 0.4
21/12:30pm 7.1 -0.7 2.8 74 1.9 NW 33 48 18 26 - - 0.4
21/12:00pm 6.2 -2.8 2.7 78 1.6 NW 39 57 21 31 - - 0.4
21/11:46am 5.8 -3.2 2.6 80 1.4 NW 39 57 21 31 - - 0.4
21/11:30am 5.5 -3.7 3.3 86 1.0 NW 41 57 22 31 - - 0.4
21/11:14am 5.7 -2.4 5.3 97 0.2 NW 37 57 20 31 - - 0.4
21/11:00am 4.5 -4.6 4.1 97 0.2 WNW 41 56 22 30 - - 0.4
21/10:30am 4.9 -5.4 4.8 99 0.0 NW 48 67 26 36 - - 0.4
21/10:06am 3.9 -8.8 3.2 95 0.3 WNW 59 80 32 43 - - 0.4
21/10:00am 4.2 -9.5 3.8 97 0.2 NW 65 80 35 43 - - 0.4
21/09:30am 3.4 -11.8 3.0 97 0.2 NW 72 100 39 54 - - 0.4
21/09:04am 4.2 -11.6 3.8 97 0.2 WNW 76 96 41 52 - - 0.4
21/09:00am 3.8 -12.1 3.4 97 0.2 WNW 76 95 41 51 - - 1.8
21/08:37am 5.3 -8.5 5.3 100 0.0 WNW 67 85 36 46 - - 1.2
21/08:30am 5.3 -8.1 5.3 100 0.0 WNW 65 78 35 42 - - 1.2
21/08:18am 5.4 -5.5 5.4 100 0.0 WNW 52 76 28 41 - - 1.2
21/08:12am 5.8 -1.4 5.8 100 0.0 NW 33 65 18 35 - - 1.0
21/08:10am 6.9 0.9 6.9 100 0.0 NNW 28 48 15 26 - - 1.0
21/08:00am 7.5 1.6 7.5 100 0.0 N 28 44 15 24 - - 0.0
21/07:30am 7.7 -1.6 7.6 99 0.1 NNW 46 65 25 35 - - 0.0
21/07:10am 7.9 -3.5 7.6 98 0.2 NNW 57 76 31 41 - - 0.0
21/07:00am 7.8 -4.4 7.4 97 0.2 NNW 61 78 33 42 - - 0.0
21/06:30am 7.8 -4.1 7.2 96 0.3 NNW 59 80 32 43 - - 0.0
21/06:00am 8.2 -5.6 7.0 92 0.6 NNW 69 89 37 48 - - 0.0
21/05:46am 8.3 -4.4 6.8 90 0.7 NNW 63 83 34 45 - - 0.0
21/05:30am 8.2 -4.9 6.8 91 0.7 NNW 65 80 35 43 - - 0.0
21/05:00am 7.6 -5.1 6.7 94 0.4 NW 63 74 34 40 - - 0.0
21/04:30am 7.5 -4.3 5.5 87 1.0 NW 57 74 31 40 - - 0.0
21/04:00am 7.8 -4.9 5.3 84 1.2 NW 61 82 33 44 - - 0.0
21/03:58am 7.8 -4.9 5.3 84 1.2 NW 61 82 33 44 - - 0.0
21/03:30am 7.5 -5.5 5.3 86 1.1 NW 63 76 34 41 - - 0.0
21/03:00am 7.4 -4.3 5.4 87 1.0 WNW 56 63 30 34 - - 0.0
21/02:30am 7.4 -4.8 5.7 89 0.8 NW 59 70 32 38 - - 0.0
21/02:00am 7.3 -4.8 5.9 91 0.7 NW 59 70 32 38 - - 0.0
21/01:30am 6.9 -3.6 5.8 93 0.5 NW 50 59 27 32 - - 0.0
21/01:00am 7.0 -3.3 6.3 95 0.3 NW 50 59 27 32 - - 0.0
21/12:30am 7.1 -3.4 5.7 91 0.7 NNW 50 61 27 33 - - 0.0
21/12:00am 7.2 -2.6 5.5 89 0.8 NW 46 57 25 31 - - 0.0
 
Date/Time
EST
Temp
°C
App
Temp
°C
Dew
Point
°C
Rel
Hum
%
Delta-T
°C
Wind Press
QNH
hPa
Press
MSL
hPa
Rain since
9am
mm
Dir  Spd
km/h
Gust
km/h
Spd
kts
Gust
kts
20/11:40pm 7.0 -3.6 7.0 100 0.0 NW 52 70 28 38 - - 0.0
20/11:30pm 7.0 -4.5 7.0 100 0.0 NW 57 74 31 40 - - 0.0
20/11:00pm 6.9 -4.6 6.9 100 0.0 NW 57 69 31 37 - - 0.0
20/10:30pm 6.9 -3.7 6.9 100 0.0 NW 52 65 28 35 - - 0.0
20/10:00pm 7.1 -3.9 6.8 98 0.1 NW 54 69 29 37 - - 0.0
20/09:30pm 7.1 -2.1 6.2 94 0.4 NW 44 56 24 30 - - 0.0
20/09:00pm 7.3 -1.4 5.8 90 0.7 NW 41 54 22 29 - - 0.0
20/08:53pm 7.3 -2.0 5.8 90 0.7 NW 44 63 24 34 - - 0.0
20/08:30pm 7.3 -2.4 5.8 90 0.7 NW 46 57 25 31 - - 0.0
20/08:00pm 7.4 -2.3 6.0 91 0.7 NNW 46 59 25 32 - - 0.0
20/07:30pm 7.5 -2.0 6.9 96 0.3 NNW 46 57 25 31 - - 0.0
20/07:00pm 7.9 -0.6 7.0 94 0.5 NNW 41 65 22 35 - - 0.0
20/06:30pm 8.3 -2.0 8.3 100 0.0 N 52 78 28 42 - - 0.0
20/06:01pm 8.5 -0.2 8.5 100 0.0 N 44 65 24 35 - - 0.0
20/06:00pm 8.5 -0.6 8.5 100 0.0 N 46 65 25 35 - - 0.0

Other formats

Comma delimited format used in spreadsheet applications
http://www.bom.gov.au/fwo/IDT60801/IDT60801.95979.axf

JavaScript Object Notation format (JSON) in row-major order
http://www.bom.gov.au/fwo/IDT60801/IDT60801.95979.json

Data quality

Most of these data are generated automatically and are frequently updated. Quality checks on data are not normally performed. It is possible for incorrect values to appear. Refer to information at About Latest Weather Observations and please check the disclaimer before using these data.